sensor_id;sensor_type;location;lat;lon;timestamp;temperature;humidity
30520;DHT22;17300;50.374;8.006;2022-10-16T00:00:21;17.00;65.80
30520;DHT22;17300;50.374;8.006;2022-10-16T00:02:47;17.00;65.80
30520;DHT22;17300;50.374;8.006;2022-10-16T00:05:14;17.00;65.90
30520;DHT22;17300;50.374;8.006;2022-10-16T00:07:41;17.00;65.90
30520;DHT22;17300;50.374;8.006;2022-10-16T00:10:08;17.00;66.00
30520;DHT22;17300;50.374;8.006;2022-10-16T00:12:35;17.00;66.00
30520;DHT22;17300;50.374;8.006;2022-10-16T00:15:03;16.90;65.90
30520;DHT22;17300;50.374;8.006;2022-10-16T00:17:30;16.90;66.10
30520;DHT22;17300;50.374;8.006;2022-10-16T00:19:57;16.90;66.00
30520;DHT22;17300;50.374;8.006;2022-10-16T00:22:24;16.90;66.10
30520;DHT22;17300;50.374;8.006;2022-10-16T00:24:50;16.90;66.10
30520;DHT22;17300;50.374;8.006;2022-10-16T00:27:17;16.90;66.20
30520;DHT22;17300;50.374;8.006;2022-10-16T00:29:44;16.90;66.20
30520;DHT22;17300;50.374;8.006;2022-10-16T00:32:12;16.90;66.30
30520;DHT22;17300;50.374;8.006;2022-10-16T00:34:38;16.90;66.30
30520;DHT22;17300;50.374;8.006;2022-10-16T00:37:05;16.90;66.20
30520;DHT22;17300;50.374;8.006;2022-10-16T00:39:32;16.90;66.20
30520;DHT22;17300;50.374;8.006;2022-10-16T00:41:58;16.90;66.20
30520;DHT22;17300;50.374;8.006;2022-10-16T00:44:43;17.00;66.20
30520;DHT22;17300;50.374;8.006;2022-10-16T00:47:15;16.90;66.50
30520;DHT22;17300;50.374;8.006;2022-10-16T00:49:43;16.90;66.20
30520;DHT22;17300;50.374;8.006;2022-10-16T00:52:11;16.90;66.10
30520;DHT22;17300;50.374;8.006;2022-10-16T00:54:38;16.90;66.10
30520;DHT22;17300;50.374;8.006;2022-10-16T00:57:06;16.90;66.10
30520;DHT22;17300;50.374;8.006;2022-10-16T00:59:35;16.90;66.10
30520;DHT22;17300;50.374;8.006;2022-10-16T01:02:04;16.90;66.20
30520;DHT22;17300;50.374;8.006;2022-10-16T01:04:35;16.90;66.20
30520;DHT22;17300;50.374;8.006;2022-10-16T01:07:09;16.90;66.30
30520;DHT22;17300;50.374;8.006;2022-10-16T01:09:42;16.90;66.40
30520;DHT22;17300;50.374;8.006;2022-10-16T01:12:14;16.90;66.40
30520;DHT22;17300;50.374;8.006;2022-10-16T01:14:47;16.90;66.50
30520;DHT22;17300;50.374;8.006;2022-10-16T01:17:18;17.00;66.50
30520;DHT22;17300;50.374;8.006;2022-10-16T01:20:04;17.00;66.50
30520;DHT22;17300;50.374;8.006;2022-10-16T01:22:40;17.00;66.80
30520;DHT22;17300;50.374;8.006;2022-10-16T01:25:14;17.00;66.30
30520;DHT22;17300;50.374;8.006;2022-10-16T01:27:45;17.00;66.30
30520;DHT22;17300;50.374;8.006;2022-10-16T01:30:18;17.00;66.30
30520;DHT22;17300;50.374;8.006;2022-10-16T01:32:51;17.00;66.40
30520;DHT22;17300;50.374;8.006;2022-10-16T01:35:23;17.00;66.40
30520;DHT22;17300;50.374;8.006;2022-10-16T01:37:54;17.00;66.40
30520;DHT22;17300;50.374;8.006;2022-10-16T01:40:26;17.00;66.50
30520;DHT22;17300;50.374;8.006;2022-10-16T01:42:58;17.00;66.50
30520;DHT22;17300;50.374;8.006;2022-10-16T01:45:28;17.00;66.60
30520;DHT22;17300;50.374;8.006;2022-10-16T01:47:57;17.00;66.60
30520;DHT22;17300;50.374;8.006;2022-10-16T01:50:26;17.00;66.50
30520;DHT22;17300;50.374;8.006;2022-10-16T01:52:55;17.10;66.80
30520;DHT22;17300;50.374;8.006;2022-10-16T01:55:28;17.10;66.80
30520;DHT22;17300;50.374;8.006;2022-10-16T01:57:58;17.10;66.80
30520;DHT22;17300;50.374;8.006;2022-10-16T02:00:26;17.10;66.80
30520;DHT22;17300;50.374;8.006;2022-10-16T02:02:54;17.10;66.70
30520;DHT22;17300;50.374;8.006;2022-10-16T02:05:24;17.10;66.80
30520;DHT22;17300;50.374;8.006;2022-10-16T02:07:53;17.10;66.80
30520;DHT22;17300;50.374;8.006;2022-10-16T02:10:21;17.20;66.90
30520;DHT22;17300;50.374;8.006;2022-10-16T02:12:52;17.20;66.90
30520;DHT22;17300;50.374;8.006;2022-10-16T02:15:23;17.20;67.00
30520;DHT22;17300;50.374;8.006;2022-10-16T02:17:49;17.20;66.90
30520;DHT22;17300;50.374;8.006;2022-10-16T02:20:16;17.30;66.90
30520;DHT22;17300;50.374;8.006;2022-10-16T02:22:46;17.30;66.90
30520;DHT22;17300;50.374;8.006;2022-10-16T02:25:17;17.30;67.00
30520;DHT22;17300;50.374;8.006;2022-10-16T02:27:49;17.30;67.00
30520;DHT22;17300;50.374;8.006;2022-10-16T02:30:21;17.30;67.00
30520;DHT22;17300;50.374;8.006;2022-10-16T02:32:53;17.40;67.10
30520;DHT22;17300;50.374;8.006;2022-10-16T02:35:22;17.40;67.10
30520;DHT22;17300;50.374;8.006;2022-10-16T02:37:50;17.40;67.00
30520;DHT22;17300;50.374;8.006;2022-10-16T02:40:18;17.40;66.90
30520;DHT22;17300;50.374;8.006;2022-10-16T02:42:50;17.50;67.00
30520;DHT22;17300;50.374;8.006;2022-10-16T02:45:18;17.50;67.00
30520;DHT22;17300;50.374;8.006;2022-10-16T02:47:45;17.40;66.80
30520;DHT22;17300;50.374;8.006;2022-10-16T02:50:13;17.50;66.90
30520;DHT22;17300;50.374;8.006;2022-10-16T02:52:40;17.50;66.90
30520;DHT22;17300;50.374;8.006;2022-10-16T02:55:07;17.50;66.90
30520;DHT22;17300;50.374;8.006;2022-10-16T02:57:34;17.50;67.00
30520;DHT22;17300;50.374;8.006;2022-10-16T03:00:03;17.50;67.00
30520;DHT22;17300;50.374;8.006;2022-10-16T03:02:29;17.60;67.20
30520;DHT22;17300;50.374;8.006;2022-10-16T03:04:56;17.60;67.30
30520;DHT22;17300;50.374;8.006;2022-10-16T03:07:24;17.60;67.30
30520;DHT22;17300;50.374;8.006;2022-10-16T03:09:51;17.60;67.30
30520;DHT22;17300;50.374;8.006;2022-10-16T03:12:17;17.60;67.30
30520;DHT22;17300;50.374;8.006;2022-10-16T03:14:44;17.70;67.30
30520;DHT22;17300;50.374;8.006;2022-10-16T03:17:11;17.70;67.30
30520;DHT22;17300;50.374;8.006;2022-10-16T03:19:38;17.70;67.20
30520;DHT22;17300;50.374;8.006;2022-10-16T03:22:10;17.70;67.20
30520;DHT22;17300;50.374;8.006;2022-10-16T03:24:54;17.70;67.10
30520;DHT22;17300;50.374;8.006;2022-10-16T03:27:21;17.70;67.20
30520;DHT22;17300;50.374;8.006;2022-10-16T03:29:48;17.70;67.30
30520;DHT22;17300;50.374;8.006;2022-10-16T03:32:14;17.70;67.30
30520;DHT22;17300;50.374;8.006;2022-10-16T03:34:41;17.80;67.40
30520;DHT22;17300;50.374;8.006;2022-10-16T03:37:08;17.80;67.30
30520;DHT22;17300;50.374;8.006;2022-10-16T03:39:56;17.80;67.30
30520;DHT22;17300;50.374;8.006;2022-10-16T03:42:35;17.80;67.60
30520;DHT22;17300;50.374;8.006;2022-10-16T03:45:03;17.80;67.30
30520;DHT22;17300;50.374;8.006;2022-10-16T03:47:29;17.80;67.20
30520;DHT22;17300;50.374;8.006;2022-10-16T03:50:00;17.80;67.30
30520;DHT22;17300;50.374;8.006;2022-10-16T03:52:27;17.80;67.40
30520;DHT22;17300;50.374;8.006;2022-10-16T03:54:54;17.80;67.40
30520;DHT22;17300;50.374;8.006;2022-10-16T03:57:22;17.80;67.40
30520;DHT22;17300;50.374;8.006;2022-10-16T03:59:51;17.80;67.50
30520;DHT22;17300;50.374;8.006;2022-10-16T04:02:18;17.80;67.60
30520;DHT22;17300;50.374;8.006;2022-10-16T04:04:44;17.80;68.30
30520;DHT22;17300;50.374;8.006;2022-10-16T04:07:11;17.80;67.50
30520;DHT22;17300;50.374;8.006;2022-10-16T04:09:38;17.80;67.50
30520;DHT22;17300;50.374;8.006;2022-10-16T04:12:10;17.80;67.40
30520;DHT22;17300;50.374;8.006;2022-10-16T04:14:38;17.90;67.50
30520;DHT22;17300;50.374;8.006;2022-10-16T04:17:08;17.80;67.20
30520;DHT22;17300;50.374;8.006;2022-10-16T04:19:34;17.80;67.30
30520;DHT22;17300;50.374;8.006;2022-10-16T04:22:01;17.80;67.20
30520;DHT22;17300;50.374;8.006;2022-10-16T04:24:27;17.90;67.30
30520;DHT22;17300;50.374;8.006;2022-10-16T04:26:54;17.90;67.40
30520;DHT22;17300;50.374;8.006;2022-10-16T04:29:21;17.80;67.40
30520;DHT22;17300;50.374;8.006;2022-10-16T04:31:53;17.90;67.50
30520;DHT22;17300;50.374;8.006;2022-10-16T04:34:19;17.80;67.50
30520;DHT22;17300;50.374;8.006;2022-10-16T04:36:47;17.80;67.40
30520;DHT22;17300;50.374;8.006;2022-10-16T04:39:14;17.80;67.50
30520;DHT22;17300;50.374;8.006;2022-10-16T04:41:41;17.80;67.50
30520;DHT22;17300;50.374;8.006;2022-10-16T04:44:09;17.90;67.60
30520;DHT22;17300;50.374;8.006;2022-10-16T04:46:36;17.90;67.60
30520;DHT22;17300;50.374;8.006;2022-10-16T04:49:04;17.90;67.60
30520;DHT22;17300;50.374;8.006;2022-10-16T04:51:31;17.90;67.60
30520;DHT22;17300;50.374;8.006;2022-10-16T04:53:58;17.90;67.50
30520;DHT22;17300;50.374;8.006;2022-10-16T04:56:25;17.90;67.50
30520;DHT22;17300;50.374;8.006;2022-10-16T04:58:51;17.90;67.60
30520;DHT22;17300;50.374;8.006;2022-10-16T05:01:26;17.80;67.50
30520;DHT22;17300;50.374;8.006;2022-10-16T05:03:52;17.90;67.60
30520;DHT22;17300;50.374;8.006;2022-10-16T05:06:20;17.90;67.60
30520;DHT22;17300;50.374;8.006;2022-10-16T05:08:47;17.90;67.60
30520;DHT22;17300;50.374;8.006;2022-10-16T05:11:14;17.90;67.60
30520;DHT22;17300;50.374;8.006;2022-10-16T05:13:40;17.90;67.60
30520;DHT22;17300;50.374;8.006;2022-10-16T05:16:07;17.80;67.50
30520;DHT22;17300;50.374;8.006;2022-10-16T05:18:33;17.80;67.50
30520;DHT22;17300;50.374;8.006;2022-10-16T05:21:00;17.80;67.60
30520;DHT22;17300;50.374;8.006;2022-10-16T05:23:28;17.80;67.60
30520;DHT22;17300;50.374;8.006;2022-10-16T05:25:56;17.80;67.50
30520;DHT22;17300;50.374;8.006;2022-10-16T05:28:23;17.90;67.60
30520;DHT22;17300;50.374;8.006;2022-10-16T05:30:51;17.80;67.50
30520;DHT22;17300;50.374;8.006;2022-10-16T05:33:19;17.80;67.50
30520;DHT22;17300;50.374;8.006;2022-10-16T05:35:46;17.80;67.60
30520;DHT22;17300;50.374;8.006;2022-10-16T05:38:15;17.80;67.60
30520;DHT22;17300;50.374;8.006;2022-10-16T05:40:43;17.80;67.70
30520;DHT22;17300;50.374;8.006;2022-10-16T05:43:11;17.80;67.80
30520;DHT22;17300;50.374;8.006;2022-10-16T05:45:38;17.80;67.80
30520;DHT22;17300;50.374;8.006;2022-10-16T05:48:05;17.80;67.80
30520;DHT22;17300;50.374;8.006;2022-10-16T05:50:32;17.80;67.80
30520;DHT22;17300;50.374;8.006;2022-10-16T05:52:58;17.80;67.80
30520;DHT22;17300;50.374;8.006;2022-10-16T05:55:25;17.80;67.80
30520;DHT22;17300;50.374;8.006;2022-10-16T05:57:55;17.90;67.80
30520;DHT22;17300;50.374;8.006;2022-10-16T06:00:25;17.80;67.60
30520;DHT22;17300;50.374;8.006;2022-10-16T06:02:57;17.80;67.60
30520;DHT22;17300;50.374;8.006;2022-10-16T06:05:28;17.80;67.50
30520;DHT22;17300;50.374;8.006;2022-10-16T06:08:02;17.80;67.60
30520;DHT22;17300;50.374;8.006;2022-10-16T06:10:32;17.80;67.80
30520;DHT22;17300;50.374;8.006;2022-10-16T06:13:14;17.80;67.80
30520;DHT22;17300;50.374;8.006;2022-10-16T06:16:01;17.80;67.80
30520;DHT22;17300;50.374;8.006;2022-10-16T06:22:23;17.90;68.20
30520;DHT22;17300;50.374;8.006;2022-10-16T06:25:18;17.90;68.00
30520;DHT22;17300;50.374;8.006;2022-10-16T06:33:11;17.90;67.70
30520;DHT22;17300;50.374;8.006;2022-10-16T06:35:37;17.90;67.90
30520;DHT22;17300;50.374;8.006;2022-10-16T06:38:04;17.80;67.80
30520;DHT22;17300;50.374;8.006;2022-10-16T06:40:31;17.90;67.90
30520;DHT22;17300;50.374;8.006;2022-10-16T06:42:58;17.90;67.90
30520;DHT22;17300;50.374;8.006;2022-10-16T06:45:25;17.90;67.90
30520;DHT22;17300;50.374;8.006;2022-10-16T06:47:52;17.90;67.90
30520;DHT22;17300;50.374;8.006;2022-10-16T06:50:22;17.90;67.90
30520;DHT22;17300;50.374;8.006;2022-10-16T06:52:49;17.90;68.10
30520;DHT22;17300;50.374;8.006;2022-10-16T06:55:16;17.90;68.10
30520;DHT22;17300;50.374;8.006;2022-10-16T06:57:43;18.00;68.30
30520;DHT22;17300;50.374;8.006;2022-10-16T07:00:10;18.00;68.30
30520;DHT22;17300;50.374;8.006;2022-10-16T07:02:37;18.00;68.30
30520;DHT22;17300;50.374;8.006;2022-10-16T07:05:05;18.00;68.30
30520;DHT22;17300;50.374;8.006;2022-10-16T07:07:34;18.10;68.30
30520;DHT22;17300;50.374;8.006;2022-10-16T07:10:02;18.10;68.30
30520;DHT22;17300;50.374;8.006;2022-10-16T07:12:36;18.10;68.30
30520;DHT22;17300;50.374;8.006;2022-10-16T07:15:07;18.20;68.30
30520;DHT22;17300;50.374;8.006;2022-10-16T07:17:34;18.20;68.30
30520;DHT22;17300;50.374;8.006;2022-10-16T07:20:00;18.20;68.30
30520;DHT22;17300;50.374;8.006;2022-10-16T07:22:29;18.20;68.30
30520;DHT22;17300;50.374;8.006;2022-10-16T10:05:18;23.60;63.90
30520;DHT22;17300;50.374;8.006;2022-10-16T10:07:54;23.70;63.70
30520;DHT22;17300;50.374;8.006;2022-10-16T10:10:23;23.80;63.30
30520;DHT22;17300;50.374;8.006;2022-10-16T10:12:50;23.90;64.00
30520;DHT22;17300;50.374;8.006;2022-10-16T10:15:17;23.90;63.80
30520;DHT22;17300;50.374;8.006;2022-10-16T10:17:48;24.00;63.40
30520;DHT22;17300;50.374;8.006;2022-10-16T10:20:23;24.00;63.10
30520;DHT22;17300;50.374;8.006;2022-10-16T10:22:51;24.10;62.30
30520;DHT22;17300;50.374;8.006;2022-10-16T10:25:40;24.10;62.90
30520;DHT22;17300;50.374;8.006;2022-10-16T10:28:44;24.20;61.70
30520;DHT22;17300;50.374;8.006;2022-10-16T10:31:15;24.30;62.70
30520;DHT22;17300;50.374;8.006;2022-10-16T10:33:46;24.70;65.50
30520;DHT22;17300;50.374;8.006;2022-10-16T10:36:26;25.10;66.60
30520;DHT22;17300;50.374;8.006;2022-10-16T10:38:58;25.70;65.90
30520;DHT22;17300;50.374;8.006;2022-10-16T10:41:44;26.40;67.20
30520;DHT22;17300;50.374;8.006;2022-10-16T10:44:26;27.10;65.70
30520;DHT22;17300;50.374;8.006;2022-10-16T10:46:57;27.80;64.00
30520;DHT22;17300;50.374;8.006;2022-10-16T10:49:42;28.30;62.70
30520;DHT22;17300;50.374;8.006;2022-10-16T10:52:28;28.70;59.20
30520;DHT22;17300;50.374;8.006;2022-10-16T10:55:05;29.20;58.70
30520;DHT22;17300;50.374;8.006;2022-10-16T10:57:40;29.60;58.60
30520;DHT22;17300;50.374;8.006;2022-10-16T11:00:18;29.80;57.30
30520;DHT22;17300;50.374;8.006;2022-10-16T11:02:50;29.90;55.10
30520;DHT22;17300;50.374;8.006;2022-10-16T11:05:31;29.90;54.60
30520;DHT22;17300;50.374;8.006;2022-10-16T11:08:04;29.80;53.70
30520;DHT22;17300;50.374;8.006;2022-10-16T11:10:41;29.60;53.30
30520;DHT22;17300;50.374;8.006;2022-10-16T11:13:20;29.30;52.80
30520;DHT22;17300;50.374;8.006;2022-10-16T11:15:49;29.00;52.40
30520;DHT22;17300;50.374;8.006;2022-10-16T11:18:21;28.70;53.10
30520;DHT22;17300;50.374;8.006;2022-10-16T11:20:51;28.40;52.90
30520;DHT22;17300;50.374;8.006;2022-10-16T11:23:24;28.20;53.40
30520;DHT22;17300;50.374;8.006;2022-10-16T11:25:53;28.00;53.80
30520;DHT22;17300;50.374;8.006;2022-10-16T11:28:25;27.90;54.60
30520;DHT22;17300;50.374;8.006;2022-10-16T11:30:57;27.80;55.20
30520;DHT22;17300;50.374;8.006;2022-10-16T11:33:28;27.80;54.90
30520;DHT22;17300;50.374;8.006;2022-10-16T11:36:02;27.70;54.70
30520;DHT22;17300;50.374;8.006;2022-10-16T11:38:35;27.70;54.90
30520;DHT22;17300;50.374;8.006;2022-10-16T11:41:10;27.70;54.80
30520;DHT22;17300;50.374;8.006;2022-10-16T11:43:42;27.60;54.80
30520;DHT22;17300;50.374;8.006;2022-10-16T11:46:13;27.50;54.70
30520;DHT22;17300;50.374;8.006;2022-10-16T11:48:45;27.40;54.20
30520;DHT22;17300;50.374;8.006;2022-10-16T11:51:17;27.30;54.10
30520;DHT22;17300;50.374;8.006;2022-10-16T11:53:53;27.20;53.80
30520;DHT22;17300;50.374;8.006;2022-10-16T11:56:23;27.10;53.50
30520;DHT22;17300;50.374;8.006;2022-10-16T11:58:56;27.00;54.00
30520;DHT22;17300;50.374;8.006;2022-10-16T12:01:30;26.80;53.70
30520;DHT22;17300;50.374;8.006;2022-10-16T12:04:06;26.70;53.80
30520;DHT22;17300;50.374;8.006;2022-10-16T12:06:42;26.50;53.70
30520;DHT22;17300;50.374;8.006;2022-10-16T12:09:15;26.50;54.50
30520;DHT22;17300;50.374;8.006;2022-10-16T12:11:44;26.40;54.90
30520;DHT22;17300;50.374;8.006;2022-10-16T12:14:36;26.40;55.60
30520;DHT22;17300;50.374;8.006;2022-10-16T12:17:22;26.40;54.90
30520;DHT22;17300;50.374;8.006;2022-10-16T12:19:58;26.40;54.90
30520;DHT22;17300;50.374;8.006;2022-10-16T12:22:28;26.40;54.60
30520;DHT22;17300;50.374;8.006;2022-10-16T12:24:57;26.40;54.90
30520;DHT22;17300;50.374;8.006;2022-10-16T12:27:27;26.40;54.90
30520;DHT22;17300;50.374;8.006;2022-10-16T12:29:56;26.40;54.80
30520;DHT22;17300;50.374;8.006;2022-10-16T12:32:28;26.30;54.80
30520;DHT22;17300;50.374;8.006;2022-10-16T12:34:56;26.20;54.80
30520;DHT22;17300;50.374;8.006;2022-10-16T12:37:39;26.20;55.00
30520;DHT22;17300;50.374;8.006;2022-10-16T12:40:14;26.20;54.90
30520;DHT22;17300;50.374;8.006;2022-10-16T12:42:42;26.10;54.20
30520;DHT22;17300;50.374;8.006;2022-10-16T12:45:27;26.10;54.70
30520;DHT22;17300;50.374;8.006;2022-10-16T12:47:55;26.00;53.80
30520;DHT22;17300;50.374;8.006;2022-10-16T12:50:33;26.00;54.20
30520;DHT22;17300;50.374;8.006;2022-10-16T12:53:03;25.90;53.90
30520;DHT22;17300;50.374;8.006;2022-10-16T12:56:26;25.80;54.10
30520;DHT22;17300;50.374;8.006;2022-10-16T13:03:22;25.60;54.10
30520;DHT22;17300;50.374;8.006;2022-10-16T13:06:03;25.50;54.40
30520;DHT22;17300;50.374;8.006;2022-10-16T13:12:01;25.40;54.70
30520;DHT22;17300;50.374;8.006;2022-10-16T13:14:54;25.30;54.70
30520;DHT22;17300;50.374;8.006;2022-10-16T13:17:28;25.30;54.70
30520;DHT22;17300;50.374;8.006;2022-10-16T13:20:03;25.20;54.70
30520;DHT22;17300;50.374;8.006;2022-10-16T13:22:37;25.10;55.10
30520;DHT22;17300;50.374;8.006;2022-10-16T13:25:19;25.10;55.30
30520;DHT22;17300;50.374;8.006;2022-10-16T13:27:54;25.10;55.00
30520;DHT22;17300;50.374;8.006;2022-10-16T13:30:23;25.20;55.20
30520;DHT22;17300;50.374;8.006;2022-10-16T13:32:55;25.10;55.50
30520;DHT22;17300;50.374;8.006;2022-10-16T13:35:26;25.10;55.50
30520;DHT22;17300;50.374;8.006;2022-10-16T13:38:11;25.10;55.60
30520;DHT22;17300;50.374;8.006;2022-10-16T13:40:52;25.20;55.80
30520;DHT22;17300;50.374;8.006;2022-10-16T13:43:23;25.20;55.80
30520;DHT22;17300;50.374;8.006;2022-10-16T13:45:56;25.20;55.60
30520;DHT22;17300;50.374;8.006;2022-10-16T13:48:23;25.20;55.60
30520;DHT22;17300;50.374;8.006;2022-10-16T13:51:01;25.20;55.70
30520;DHT22;17300;50.374;8.006;2022-10-16T13:53:31;25.20;55.20
30520;DHT22;17300;50.374;8.006;2022-10-16T13:55:57;25.10;55.10
30520;DHT22;17300;50.374;8.006;2022-10-16T13:58:27;25.00;55.00
30520;DHT22;17300;50.374;8.006;2022-10-16T14:00:56;24.90;55.00
30520;DHT22;17300;50.374;8.006;2022-10-16T14:03:24;24.80;55.10
30520;DHT22;17300;50.374;8.006;2022-10-16T14:05:53;24.80;55.30
30520;DHT22;17300;50.374;8.006;2022-10-16T14:08:21;24.70;55.30
30520;DHT22;17300;50.374;8.006;2022-10-16T14:10:50;24.70;55.50
30520;DHT22;17300;50.374;8.006;2022-10-16T14:13:19;24.60;55.60
30520;DHT22;17300;50.374;8.006;2022-10-16T14:15:49;24.50;55.70
30520;DHT22;17300;50.374;8.006;2022-10-16T14:18:20;24.50;56.00
30520;DHT22;17300;50.374;8.006;2022-10-16T14:20:48;24.50;56.10
30520;DHT22;17300;50.374;8.006;2022-10-16T14:23:23;24.50;56.10
30520;DHT22;17300;50.374;8.006;2022-10-16T14:26:04;24.50;56.10
30520;DHT22;17300;50.374;8.006;2022-10-16T14:28:31;24.50;56.30
30520;DHT22;17300;50.374;8.006;2022-10-16T14:31:01;24.40;56.40
30520;DHT22;17300;50.374;8.006;2022-10-16T14:33:32;24.40;56.50
30520;DHT22;17300;50.374;8.006;2022-10-16T14:36:02;24.40;56.70
30520;DHT22;17300;50.374;8.006;2022-10-16T14:38:34;24.40;56.80
30520;DHT22;17300;50.374;8.006;2022-10-16T14:41:01;24.40;57.00
30520;DHT22;17300;50.374;8.006;2022-10-16T14:43:32;24.30;57.00
30520;DHT22;17300;50.374;8.006;2022-10-16T14:46:06;24.30;57.60
30520;DHT22;17300;50.374;8.006;2022-10-16T14:48:34;24.30;56.90
30520;DHT22;17300;50.374;8.006;2022-10-16T14:51:08;24.20;57.00
30520;DHT22;17300;50.374;8.006;2022-10-16T14:53:36;24.20;56.90
30520;DHT22;17300;50.374;8.006;2022-10-16T14:56:09;24.20;57.10
30520;DHT22;17300;50.374;8.006;2022-10-16T14:58:47;24.10;57.20
30520;DHT22;17300;50.374;8.006;2022-10-16T15:01:18;24.10;57.20
30520;DHT22;17300;50.374;8.006;2022-10-16T15:03:47;24.00;57.10
30520;DHT22;17300;50.374;8.006;2022-10-16T15:06:15;24.00;57.10
30520;DHT22;17300;50.374;8.006;2022-10-16T15:08:42;24.00;57.40
30520;DHT22;17300;50.374;8.006;2022-10-16T15:11:17;23.90;57.60
30520;DHT22;17300;50.374;8.006;2022-10-16T15:13:44;23.90;57.80
30520;DHT22;17300;50.374;8.006;2022-10-16T15:16:13;23.90;57.60
30520;DHT22;17300;50.374;8.006;2022-10-16T15:18:42;23.80;57.50
30520;DHT22;17300;50.374;8.006;2022-10-16T15:21:15;23.70;57.60
30520;DHT22;17300;50.374;8.006;2022-10-16T15:23:48;23.60;57.50
30520;DHT22;17300;50.374;8.006;2022-10-16T15:26:16;23.60;57.60
30520;DHT22;17300;50.374;8.006;2022-10-16T15:28:42;23.60;57.80
30520;DHT22;17300;50.374;8.006;2022-10-16T15:31:09;23.50;57.90
30520;DHT22;17300;50.374;8.006;2022-10-16T15:33:36;23.40;58.00
30520;DHT22;17300;50.374;8.006;2022-10-16T15:36:05;23.40;58.00
30520;DHT22;17300;50.374;8.006;2022-10-16T15:38:32;23.30;58.50
30520;DHT22;17300;50.374;8.006;2022-10-16T15:40:59;23.30;57.90
30520;DHT22;17300;50.374;8.006;2022-10-16T15:43:26;23.20;58.00
30520;DHT22;17300;50.374;8.006;2022-10-16T15:45:59;23.20;58.20
30520;DHT22;17300;50.374;8.006;2022-10-16T15:48:27;23.20;58.80
30520;DHT22;17300;50.374;8.006;2022-10-16T15:50:54;23.10;58.60
30520;DHT22;17300;50.374;8.006;2022-10-16T15:53:23;23.00;58.60
30520;DHT22;17300;50.374;8.006;2022-10-16T15:55:50;23.00;58.60
30520;DHT22;17300;50.374;8.006;2022-10-16T15:58:17;22.90;58.60
30520;DHT22;17300;50.374;8.006;2022-10-16T16:00:43;22.90;58.80
30520;DHT22;17300;50.374;8.006;2022-10-16T16:03:10;22.80;58.90
30520;DHT22;17300;50.374;8.006;2022-10-16T16:05:38;22.70;59.00
30520;DHT22;17300;50.374;8.006;2022-10-16T16:08:05;22.70;59.10
30520;DHT22;17300;50.374;8.006;2022-10-16T16:10:33;22.60;59.20
30520;DHT22;17300;50.374;8.006;2022-10-16T16:13:00;22.60;59.30
30520;DHT22;17300;50.374;8.006;2022-10-16T16:15:28;22.50;59.40
30520;DHT22;17300;50.374;8.006;2022-10-16T16:17:54;22.40;59.40
30520;DHT22;17300;50.374;8.006;2022-10-16T16:20:21;22.40;59.60
30520;DHT22;17300;50.374;8.006;2022-10-16T16:22:48;22.30;59.70
30520;DHT22;17300;50.374;8.006;2022-10-16T16:25:15;22.30;59.80
30520;DHT22;17300;50.374;8.006;2022-10-16T16:27:43;22.20;59.90
30520;DHT22;17300;50.374;8.006;2022-10-16T16:30:11;22.20;60.20
30520;DHT22;17300;50.374;8.006;2022-10-16T16:32:38;22.10;60.30
30520;DHT22;17300;50.374;8.006;2022-10-16T16:35:05;22.10;60.30
30520;DHT22;17300;50.374;8.006;2022-10-16T16:37:32;22.00;60.40
30520;DHT22;17300;50.374;8.006;2022-10-16T16:40:00;22.00;60.50
30520;DHT22;17300;50.374;8.006;2022-10-16T16:42:27;21.90;60.50
30520;DHT22;17300;50.374;8.006;2022-10-16T16:44:55;21.90;60.60
30520;DHT22;17300;50.374;8.006;2022-10-16T16:47:22;21.80;60.60
30520;DHT22;17300;50.374;8.006;2022-10-16T16:49:49;21.80;60.70
30520;DHT22;17300;50.374;8.006;2022-10-16T16:52:17;21.80;61.00
30520;DHT22;17300;50.374;8.006;2022-10-16T16:54:44;21.70;61.00
30520;DHT22;17300;50.374;8.006;2022-10-16T16:57:17;21.60;61.00
30520;DHT22;17300;50.374;8.006;2022-10-16T16:59:44;21.60;61.10
30520;DHT22;17300;50.374;8.006;2022-10-16T17:02:12;21.60;61.30
30520;DHT22;17300;50.374;8.006;2022-10-16T17:04:39;21.50;61.40
30520;DHT22;17300;50.374;8.006;2022-10-16T17:07:06;21.60;61.60
30520;DHT22;17300;50.374;8.006;2022-10-16T17:09:32;21.50;61.60
30520;DHT22;17300;50.374;8.006;2022-10-16T17:12:00;21.40;61.70
30520;DHT22;17300;50.374;8.006;2022-10-16T17:14:27;21.40;61.80
30520;DHT22;17300;50.374;8.006;2022-10-16T17:16:54;21.30;61.80
30520;DHT22;17300;50.374;8.006;2022-10-16T17:19:26;21.30;61.90
30520;DHT22;17300;50.374;8.006;2022-10-16T17:21:54;21.30;62.50
30520;DHT22;17300;50.374;8.006;2022-10-16T17:24:22;21.30;62.30
30520;DHT22;17300;50.374;8.006;2022-10-16T17:26:49;21.20;62.40
30520;DHT22;17300;50.374;8.006;2022-10-16T17:29:17;21.20;62.40
30520;DHT22;17300;50.374;8.006;2022-10-16T17:31:44;21.10;62.30
30520;DHT22;17300;50.374;8.006;2022-10-16T17:34:14;21.10;62.30
30520;DHT22;17300;50.374;8.006;2022-10-16T17:36:42;21.00;62.30
30520;DHT22;17300;50.374;8.006;2022-10-16T17:39:14;21.10;62.60
30520;DHT22;17300;50.374;8.006;2022-10-16T17:41:42;21.00;62.50
30520;DHT22;17300;50.374;8.006;2022-10-16T17:44:10;21.00;62.50
30520;DHT22;17300;50.374;8.006;2022-10-16T17:46:44;20.90;62.40
30520;DHT22;17300;50.374;8.006;2022-10-16T17:49:10;20.80;62.30
30520;DHT22;17300;50.374;8.006;2022-10-16T17:51:37;20.80;62.40
30520;DHT22;17300;50.374;8.006;2022-10-16T17:54:06;20.70;62.30
30520;DHT22;17300;50.374;8.006;2022-10-16T17:56:33;20.60;62.50
30520;DHT22;17300;50.374;8.006;2022-10-16T17:59:00;20.50;62.40
30520;DHT22;17300;50.374;8.006;2022-10-16T18:01:29;20.50;62.50
30520;DHT22;17300;50.374;8.006;2022-10-16T18:03:58;20.40;62.60
30520;DHT22;17300;50.374;8.006;2022-10-16T18:06:25;20.30;62.60
30520;DHT22;17300;50.374;8.006;2022-10-16T18:08:53;20.30;62.90
30520;DHT22;17300;50.374;8.006;2022-10-16T18:11:23;20.20;62.90
30520;DHT22;17300;50.374;8.006;2022-10-16T18:13:51;20.10;63.10
30520;DHT22;17300;50.374;8.006;2022-10-16T18:16:18;20.10;63.20
30520;DHT22;17300;50.374;8.006;2022-10-16T18:18:45;20.00;63.30
30520;DHT22;17300;50.374;8.006;2022-10-16T18:21:14;20.00;63.40
30520;DHT22;17300;50.374;8.006;2022-10-16T18:23:42;20.00;63.60
30520;DHT22;17300;50.374;8.006;2022-10-16T18:26:10;19.90;63.50
30520;DHT22;17300;50.374;8.006;2022-10-16T18:28:39;19.90;63.60
30520;DHT22;17300;50.374;8.006;2022-10-16T18:31:08;19.80;63.50
30520;DHT22;17300;50.374;8.006;2022-10-16T18:33:37;19.80;63.50
30520;DHT22;17300;50.374;8.006;2022-10-16T18:36:06;19.70;64.20
30520;DHT22;17300;50.374;8.006;2022-10-16T18:38:35;19.70;63.60
30520;DHT22;17300;50.374;8.006;2022-10-16T18:41:03;19.60;63.50
30520;DHT22;17300;50.374;8.006;2022-10-16T18:43:30;19.60;63.60
30520;DHT22;17300;50.374;8.006;2022-10-16T18:46:00;19.60;63.70